sensor_id;sensor_type;location;lat;lon;timestamp;P1;durP1;ratioP1;P2;durP2;ratioP2
4933;SDS011;2482;49.154;8.254;2024-03-07T00:02:21;46.07;;;24.70;;
4933;SDS011;2482;49.154;8.254;2024-03-07T00:04:51;43.40;;;24.53;;
4933;SDS011;2482;49.154;8.254;2024-03-07T00:07:31;43.83;;;26.80;;
4933;SDS011;2482;49.154;8.254;2024-03-07T00:10:02;42.73;;;23.67;;
4933;SDS011;2482;49.154;8.254;2024-03-07T00:12:34;37.23;;;22.40;;
4933;SDS011;2482;49.154;8.254;2024-03-07T00:15:05;42.50;;;24.47;;
4933;SDS011;2482;49.154;8.254;2024-03-07T00:17:38;37.80;;;23.23;;
4933;SDS011;2482;49.154;8.254;2024-03-07T00:20:19;41.33;;;23.47;;
4933;SDS011;2482;49.154;8.254;2024-03-07T00:22:49;42.93;;;23.50;;
4933;SDS011;2482;49.154;8.254;2024-03-07T00:25:24;41.90;;;23.90;;
4933;SDS011;2482;49.154;8.254;2024-03-07T00:27:58;40.20;;;23.90;;
4933;SDS011;2482;49.154;8.254;2024-03-07T00:30:29;41.57;;;24.37;;
4933;SDS011;2482;49.154;8.254;2024-03-07T00:33:19;42.60;;;24.30;;
4933;SDS011;2482;49.154;8.254;2024-03-07T00:35:48;41.60;;;23.40;;
4933;SDS011;2482;49.154;8.254;2024-03-07T00:38:24;45.37;;;24.83;;
4933;SDS011;2482;49.154;8.254;2024-03-07T00:40:55;46.73;;;25.67;;
4933;SDS011;2482;49.154;8.254;2024-03-07T00:43:40;46.50;;;24.33;;
4933;SDS011;2482;49.154;8.254;2024-03-07T00:46:10;48.93;;;25.10;;
4933;SDS011;2482;49.154;8.254;2024-03-07T00:48:42;49.00;;;24.40;;
4933;SDS011;2482;49.154;8.254;2024-03-07T00:51:19;41.33;;;23.87;;
4933;SDS011;2482;49.154;8.254;2024-03-07T00:53:50;43.77;;;24.40;;
4933;SDS011;2482;49.154;8.254;2024-03-07T00:56:19;44.83;;;25.27;;
4933;SDS011;2482;49.154;8.254;2024-03-07T00:58:59;42.80;;;24.67;;
4933;SDS011;2482;49.154;8.254;2024-03-07T01:01:32;48.17;;;24.13;;
4933;SDS011;2482;49.154;8.254;2024-03-07T01:06:54;47.27;;;24.30;;
4933;SDS011;2482;49.154;8.254;2024-03-07T01:09:23;46.73;;;26.23;;
4933;SDS011;2482;49.154;8.254;2024-03-07T01:11:54;45.10;;;25.40;;
4933;SDS011;2482;49.154;8.254;2024-03-07T01:14:37;44.60;;;25.13;;
4933;SDS011;2482;49.154;8.254;2024-03-07T01:17:06;50.50;;;26.50;;
4933;SDS011;2482;49.154;8.254;2024-03-07T01:22:38;47.37;;;25.10;;
4933;SDS011;2482;49.154;8.254;2024-03-07T01:25:08;47.60;;;25.27;;
4933;SDS011;2482;49.154;8.254;2024-03-07T01:27:51;52.07;;;26.80;;
4933;SDS011;2482;49.154;8.254;2024-03-07T01:30:35;47.60;;;26.30;;
4933;SDS011;2482;49.154;8.254;2024-03-07T01:33:09;45.03;;;25.80;;
4933;SDS011;2482;49.154;8.254;2024-03-07T01:35:52;51.43;;;27.50;;
4933;SDS011;2482;49.154;8.254;2024-03-07T01:40:58;48.67;;;25.63;;
4933;SDS011;2482;49.154;8.254;2024-03-07T01:43:29;48.13;;;25.90;;
4933;SDS011;2482;49.154;8.254;2024-03-07T01:45:58;45.37;;;25.67;;
4933;SDS011;2482;49.154;8.254;2024-03-07T01:48:34;50.67;;;26.40;;
4933;SDS011;2482;49.154;8.254;2024-03-07T01:51:07;43.77;;;24.60;;
4933;SDS011;2482;49.154;8.254;2024-03-07T01:53:47;42.10;;;23.90;;
4933;SDS011;2482;49.154;8.254;2024-03-07T01:56:25;45.63;;;26.20;;
4933;SDS011;2482;49.154;8.254;2024-03-07T01:58:55;41.97;;;23.47;;
4933;SDS011;2482;49.154;8.254;2024-03-07T02:01:30;44.57;;;25.30;;
4933;SDS011;2482;49.154;8.254;2024-03-07T02:04:01;38.00;;;22.90;;
4933;SDS011;2482;49.154;8.254;2024-03-07T02:06:32;38.33;;;22.70;;
4933;SDS011;2482;49.154;8.254;2024-03-07T02:09:06;38.63;;;22.93;;
4933;SDS011;2482;49.154;8.254;2024-03-07T02:11:36;38.93;;;22.37;;
4933;SDS011;2482;49.154;8.254;2024-03-07T02:14:07;39.53;;;24.00;;
4933;SDS011;2482;49.154;8.254;2024-03-07T02:16:37;38.67;;;22.50;;
4933;SDS011;2482;49.154;8.254;2024-03-07T02:19:06;37.73;;;22.57;;
4933;SDS011;2482;49.154;8.254;2024-03-07T02:21:47;34.10;;;22.10;;
4933;SDS011;2482;49.154;8.254;2024-03-07T02:24:22;35.83;;;21.53;;
4933;SDS011;2482;49.154;8.254;2024-03-07T02:27:04;42.07;;;23.80;;
4933;SDS011;2482;49.154;8.254;2024-03-07T02:29:36;36.33;;;21.30;;
4933;SDS011;2482;49.154;8.254;2024-03-07T02:32:13;35.93;;;21.60;;
4933;SDS011;2482;49.154;8.254;2024-03-07T02:34:41;34.63;;;21.23;;
4933;SDS011;2482;49.154;8.254;2024-03-07T02:37:15;39.80;;;23.20;;
4933;SDS011;2482;49.154;8.254;2024-03-07T02:39:43;31.50;;;20.87;;
4933;SDS011;2482;49.154;8.254;2024-03-07T02:42:20;36.90;;;22.60;;
4933;SDS011;2482;49.154;8.254;2024-03-07T02:44:51;35.03;;;22.23;;
4933;SDS011;2482;49.154;8.254;2024-03-07T02:47:22;33.40;;;21.57;;
4933;SDS011;2482;49.154;8.254;2024-03-07T02:52:33;36.73;;;22.00;;
4933;SDS011;2482;49.154;8.254;2024-03-07T02:55:05;34.20;;;21.00;;
4933;SDS011;2482;49.154;8.254;2024-03-07T02:57:39;35.97;;;21.60;;
4933;SDS011;2482;49.154;8.254;2024-03-07T03:00:08;33.70;;;20.90;;
4933;SDS011;2482;49.154;8.254;2024-03-07T03:02:53;37.17;;;21.93;;
4933;SDS011;2482;49.154;8.254;2024-03-07T03:05:42;31.83;;;20.27;;
4933;SDS011;2482;49.154;8.254;2024-03-07T03:08:26;35.83;;;21.97;;
4933;SDS011;2482;49.154;8.254;2024-03-07T03:13:33;35.00;;;20.50;;
4933;SDS011;2482;49.154;8.254;2024-03-07T03:16:00;38.27;;;22.70;;
4933;SDS011;2482;49.154;8.254;2024-03-07T03:18:34;32.50;;;21.70;;
4933;SDS011;2482;49.154;8.254;2024-03-07T03:21:16;39.30;;;20.53;;
4933;SDS011;2482;49.154;8.254;2024-03-07T03:23:53;32.43;;;20.63;;
4933;SDS011;2482;49.154;8.254;2024-03-07T03:34:52;35.93;;;21.77;;
4933;SDS011;2482;49.154;8.254;2024-03-07T03:37:45;32.17;;;20.47;;
4933;SDS011;2482;49.154;8.254;2024-03-07T03:40:20;32.77;;;20.40;;
4933;SDS011;2482;49.154;8.254;2024-03-07T03:42:53;37.37;;;21.70;;
4933;SDS011;2482;49.154;8.254;2024-03-07T03:45:33;39.47;;;22.20;;
4933;SDS011;2482;49.154;8.254;2024-03-07T03:48:10;32.73;;;20.90;;
4933;SDS011;2482;49.154;8.254;2024-03-07T03:50:47;33.70;;;19.73;;
4933;SDS011;2482;49.154;8.254;2024-03-07T03:53:15;37.37;;;20.37;;
4933;SDS011;2482;49.154;8.254;2024-03-07T03:58:30;35.00;;;20.23;;
4933;SDS011;2482;49.154;8.254;2024-03-07T04:01:11;34.77;;;23.10;;
4933;SDS011;2482;49.154;8.254;2024-03-07T04:03:48;35.47;;;21.33;;
4933;SDS011;2482;49.154;8.254;2024-03-07T04:06:18;39.43;;;23.87;;
4933;SDS011;2482;49.154;8.254;2024-03-07T04:08:46;37.47;;;22.17;;
4933;SDS011;2482;49.154;8.254;2024-03-07T04:11:17;40.40;;;22.10;;
4933;SDS011;2482;49.154;8.254;2024-03-07T04:13:47;36.90;;;21.70;;
4933;SDS011;2482;49.154;8.254;2024-03-07T04:16:25;42.93;;;21.10;;
4933;SDS011;2482;49.154;8.254;2024-03-07T04:18:56;34.43;;;21.60;;
4933;SDS011;2482;49.154;8.254;2024-03-07T04:21:26;39.17;;;21.97;;
4933;SDS011;2482;49.154;8.254;2024-03-07T04:24:03;37.43;;;21.70;;
4933;SDS011;2482;49.154;8.254;2024-03-07T04:29:11;33.13;;;19.90;;
4933;SDS011;2482;49.154;8.254;2024-03-07T04:31:41;37.27;;;19.80;;
4933;SDS011;2482;49.154;8.254;2024-03-07T04:34:10;32.30;;;19.80;;
4933;SDS011;2482;49.154;8.254;2024-03-07T04:36:39;35.53;;;20.77;;
4933;SDS011;2482;49.154;8.254;2024-03-07T04:39:10;37.47;;;19.80;;
4933;SDS011;2482;49.154;8.254;2024-03-07T04:41:51;33.80;;;19.47;;
4933;SDS011;2482;49.154;8.254;2024-03-07T04:44:23;35.07;;;19.97;;
4933;SDS011;2482;49.154;8.254;2024-03-07T04:46:53;33.17;;;19.33;;
4933;SDS011;2482;49.154;8.254;2024-03-07T04:49:30;34.00;;;19.83;;
4933;SDS011;2482;49.154;8.254;2024-03-07T04:52:00;32.90;;;20.83;;
4933;SDS011;2482;49.154;8.254;2024-03-07T04:57:03;33.57;;;20.57;;
4933;SDS011;2482;49.154;8.254;2024-03-07T04:59:37;31.17;;;18.27;;
4933;SDS011;2482;49.154;8.254;2024-03-07T05:02:08;34.90;;;20.07;;
4933;SDS011;2482;49.154;8.254;2024-03-07T05:04:36;32.43;;;19.87;;
4933;SDS011;2482;49.154;8.254;2024-03-07T05:07:08;33.10;;;19.30;;
4933;SDS011;2482;49.154;8.254;2024-03-07T05:09:39;33.57;;;19.03;;
4933;SDS011;2482;49.154;8.254;2024-03-07T05:12:11;34.17;;;19.83;;
4933;SDS011;2482;49.154;8.254;2024-03-07T05:17:15;34.77;;;19.80;;
4933;SDS011;2482;49.154;8.254;2024-03-07T05:19:52;34.03;;;19.63;;
4933;SDS011;2482;49.154;8.254;2024-03-07T05:22:20;38.70;;;19.63;;
4933;SDS011;2482;49.154;8.254;2024-03-07T05:24:51;36.20;;;19.83;;
4933;SDS011;2482;49.154;8.254;2024-03-07T05:27:20;30.43;;;19.10;;
4933;SDS011;2482;49.154;8.254;2024-03-07T05:29:52;29.40;;;19.10;;
4933;SDS011;2482;49.154;8.254;2024-03-07T05:38:11;29.50;;;17.47;;
4933;SDS011;2482;49.154;8.254;2024-03-07T05:40:41;31.90;;;18.20;;
4933;SDS011;2482;49.154;8.254;2024-03-07T05:43:10;33.10;;;17.90;;
4933;SDS011;2482;49.154;8.254;2024-03-07T05:45:45;30.03;;;18.00;;
4933;SDS011;2482;49.154;8.254;2024-03-07T05:48:20;28.57;;;17.60;;
4933;SDS011;2482;49.154;8.254;2024-03-07T05:50:50;27.87;;;18.27;;
4933;SDS011;2482;49.154;8.254;2024-03-07T05:53:25;26.90;;;17.97;;
4933;SDS011;2482;49.154;8.254;2024-03-07T05:55:53;28.30;;;18.27;;
4933;SDS011;2482;49.154;8.254;2024-03-07T05:58:21;34.10;;;17.70;;
4933;SDS011;2482;49.154;8.254;2024-03-07T06:00:51;31.47;;;16.30;;
4933;SDS011;2482;49.154;8.254;2024-03-07T06:05:55;26.30;;;17.57;;
4933;SDS011;2482;49.154;8.254;2024-03-07T06:08:27;25.47;;;16.87;;
4933;SDS011;2482;49.154;8.254;2024-03-07T06:10:55;27.63;;;17.00;;
4933;SDS011;2482;49.154;8.254;2024-03-07T06:13:24;28.40;;;17.50;;
4933;SDS011;2482;49.154;8.254;2024-03-07T06:15:52;26.30;;;15.43;;
4933;SDS011;2482;49.154;8.254;2024-03-07T06:18:20;26.70;;;16.57;;
4933;SDS011;2482;49.154;8.254;2024-03-07T06:20:50;27.90;;;16.80;;
4933;SDS011;2482;49.154;8.254;2024-03-07T06:23:18;28.30;;;15.83;;
4933;SDS011;2482;49.154;8.254;2024-03-07T06:25:47;28.60;;;16.53;;
4933;SDS011;2482;49.154;8.254;2024-03-07T06:28:27;25.10;;;15.20;;
4933;SDS011;2482;49.154;8.254;2024-03-07T06:30:56;25.40;;;15.90;;
4933;SDS011;2482;49.154;8.254;2024-03-07T06:33:29;25.70;;;15.17;;
4933;SDS011;2482;49.154;8.254;2024-03-07T06:36:03;26.67;;;14.37;;
4933;SDS011;2482;49.154;8.254;2024-03-07T06:38:31;22.10;;;13.73;;
4933;SDS011;2482;49.154;8.254;2024-03-07T06:40:59;23.30;;;14.40;;
4933;SDS011;2482;49.154;8.254;2024-03-07T06:43:29;22.57;;;12.83;;
4933;SDS011;2482;49.154;8.254;2024-03-07T06:45:59;23.40;;;14.40;;
4933;SDS011;2482;49.154;8.254;2024-03-07T06:48:42;21.93;;;13.87;;
4933;SDS011;2482;49.154;8.254;2024-03-07T06:51:25;18.37;;;12.57;;
4933;SDS011;2482;49.154;8.254;2024-03-07T06:54:09;20.57;;;13.00;;
4933;SDS011;2482;49.154;8.254;2024-03-07T06:57:08;20.40;;;12.77;;
4933;SDS011;2482;49.154;8.254;2024-03-07T06:59:42;22.57;;;12.70;;
4933;SDS011;2482;49.154;8.254;2024-03-07T07:02:12;22.33;;;13.50;;
4933;SDS011;2482;49.154;8.254;2024-03-07T07:04:42;18.13;;;12.77;;
4933;SDS011;2482;49.154;8.254;2024-03-07T07:07:15;18.93;;;13.40;;
4933;SDS011;2482;49.154;8.254;2024-03-07T07:09:43;21.03;;;13.43;;
4933;SDS011;2482;49.154;8.254;2024-03-07T07:12:15;20.53;;;13.47;;
4933;SDS011;2482;49.154;8.254;2024-03-07T07:14:43;20.00;;;12.97;;
4933;SDS011;2482;49.154;8.254;2024-03-07T07:17:13;25.53;;;12.80;;
4933;SDS011;2482;49.154;8.254;2024-03-07T07:19:53;20.27;;;12.37;;
4933;SDS011;2482;49.154;8.254;2024-03-07T07:22:22;19.90;;;12.00;;
4933;SDS011;2482;49.154;8.254;2024-03-07T07:24:50;17.57;;;11.73;;
4933;SDS011;2482;49.154;8.254;2024-03-07T07:27:22;23.43;;;12.23;;
4933;SDS011;2482;49.154;8.254;2024-03-07T07:30:04;17.13;;;12.20;;
4933;SDS011;2482;49.154;8.254;2024-03-07T07:32:33;20.43;;;11.77;;
4933;SDS011;2482;49.154;8.254;2024-03-07T07:35:04;19.20;;;11.47;;
4933;SDS011;2482;49.154;8.254;2024-03-07T07:37:58;16.37;;;11.00;;
4933;SDS011;2482;49.154;8.254;2024-03-07T07:40:30;16.70;;;11.50;;
4933;SDS011;2482;49.154;8.254;2024-03-07T07:43:08;19.13;;;11.90;;
4933;SDS011;2482;49.154;8.254;2024-03-07T07:48:36;16.67;;;10.67;;
4933;SDS011;2482;49.154;8.254;2024-03-07T07:51:06;17.47;;;10.33;;
4933;SDS011;2482;49.154;8.254;2024-03-07T07:56:22;15.20;;;11.20;;
4933;SDS011;2482;49.154;8.254;2024-03-07T07:58:55;18.07;;;11.37;;
4933;SDS011;2482;49.154;8.254;2024-03-07T08:01:26;19.03;;;11.57;;
4933;SDS011;2482;49.154;8.254;2024-03-07T08:04:04;18.13;;;11.73;;
4933;SDS011;2482;49.154;8.254;2024-03-07T08:06:35;20.93;;;12.30;;
4933;SDS011;2482;49.154;8.254;2024-03-07T08:09:03;16.90;;;10.83;;
4933;SDS011;2482;49.154;8.254;2024-03-07T08:11:34;18.10;;;11.57;;
4933;SDS011;2482;49.154;8.254;2024-03-07T08:14:04;16.20;;;10.93;;
4933;SDS011;2482;49.154;8.254;2024-03-07T08:16:33;18.17;;;11.77;;
4933;SDS011;2482;49.154;8.254;2024-03-07T08:19:01;18.60;;;11.33;;
4933;SDS011;2482;49.154;8.254;2024-03-07T08:21:36;19.37;;;11.73;;
4933;SDS011;2482;49.154;8.254;2024-03-07T08:24:08;15.67;;;11.47;;
4933;SDS011;2482;49.154;8.254;2024-03-07T08:26:47;16.27;;;12.23;;
4933;SDS011;2482;49.154;8.254;2024-03-07T08:29:22;17.63;;;12.50;;
4933;SDS011;2482;49.154;8.254;2024-03-07T08:31:51;15.93;;;12.23;;
4933;SDS011;2482;49.154;8.254;2024-03-07T08:34:19;17.87;;;11.50;;
4933;SDS011;2482;49.154;8.254;2024-03-07T08:36:51;20.23;;;13.23;;
4933;SDS011;2482;49.154;8.254;2024-03-07T08:39:19;21.00;;;12.70;;
4933;SDS011;2482;49.154;8.254;2024-03-07T08:41:47;15.70;;;11.30;;
4933;SDS011;2482;49.154;8.254;2024-03-07T08:44:17;15.83;;;11.60;;
4933;SDS011;2482;49.154;8.254;2024-03-07T08:46:45;15.43;;;11.50;;
4933;SDS011;2482;49.154;8.254;2024-03-07T08:49:15;18.23;;;13.50;;
4933;SDS011;2482;49.154;8.254;2024-03-07T08:51:49;19.03;;;12.20;;
4933;SDS011;2482;49.154;8.254;2024-03-07T08:56:54;16.47;;;11.80;;
4933;SDS011;2482;49.154;8.254;2024-03-07T09:02:08;20.07;;;13.77;;
4933;SDS011;2482;49.154;8.254;2024-03-07T09:04:43;21.77;;;13.57;;
4933;SDS011;2482;49.154;8.254;2024-03-07T09:07:13;20.53;;;13.07;;
4933;SDS011;2482;49.154;8.254;2024-03-07T09:09:53;16.50;;;11.90;;
4933;SDS011;2482;49.154;8.254;2024-03-07T09:12:27;18.43;;;11.80;;
4933;SDS011;2482;49.154;8.254;2024-03-07T09:17:34;22.70;;;12.67;;
4933;SDS011;2482;49.154;8.254;2024-03-07T09:20:07;17.33;;;11.77;;
4933;SDS011;2482;49.154;8.254;2024-03-07T09:22:49;17.63;;;12.00;;
4933;SDS011;2482;49.154;8.254;2024-03-07T09:25:17;18.13;;;12.13;;
4933;SDS011;2482;49.154;8.254;2024-03-07T09:27:50;19.07;;;11.80;;
4933;SDS011;2482;49.154;8.254;2024-03-07T09:30:21;17.80;;;12.00;;
4933;SDS011;2482;49.154;8.254;2024-03-07T09:35:50;18.40;;;11.97;;
4933;SDS011;2482;49.154;8.254;2024-03-07T09:38:21;19.67;;;13.07;;
4933;SDS011;2482;49.154;8.254;2024-03-07T09:40:52;20.27;;;13.00;;
4933;SDS011;2482;49.154;8.254;2024-03-07T09:43:27;20.77;;;12.17;;
4933;SDS011;2482;49.154;8.254;2024-03-07T09:48:39;20.90;;;14.37;;
4933;SDS011;2482;49.154;8.254;2024-03-07T09:51:10;18.53;;;12.27;;
4933;SDS011;2482;49.154;8.254;2024-03-07T09:53:43;20.60;;;12.40;;
4933;SDS011;2482;49.154;8.254;2024-03-07T09:56:23;20.87;;;13.00;;
4933;SDS011;2482;49.154;8.254;2024-03-07T09:59:00;17.97;;;12.57;;
4933;SDS011;2482;49.154;8.254;2024-03-07T10:01:33;20.17;;;12.87;;
4933;SDS011;2482;49.154;8.254;2024-03-07T10:04:08;19.87;;;13.30;;
4933;SDS011;2482;49.154;8.254;2024-03-07T10:06:45;21.60;;;12.50;;
4933;SDS011;2482;49.154;8.254;2024-03-07T10:09:24;19.63;;;13.13;;
4933;SDS011;2482;49.154;8.254;2024-03-07T10:11:59;19.40;;;12.77;;
4933;SDS011;2482;49.154;8.254;2024-03-07T10:14:47;21.00;;;14.60;;
4933;SDS011;2482;49.154;8.254;2024-03-07T10:17:21;21.67;;;14.67;;
4933;SDS011;2482;49.154;8.254;2024-03-07T10:19:54;21.87;;;14.10;;
4933;SDS011;2482;49.154;8.254;2024-03-07T10:22:30;21.87;;;13.63;;
4933;SDS011;2482;49.154;8.254;2024-03-07T10:25:03;22.70;;;13.57;;
4933;SDS011;2482;49.154;8.254;2024-03-07T10:27:38;20.97;;;13.87;;
4933;SDS011;2482;49.154;8.254;2024-03-07T10:30:13;20.63;;;14.70;;
4933;SDS011;2482;49.154;8.254;2024-03-07T10:32:48;23.17;;;14.70;;
4933;SDS011;2482;49.154;8.254;2024-03-07T10:35:30;22.50;;;13.73;;
4933;SDS011;2482;49.154;8.254;2024-03-07T10:38:04;23.70;;;15.40;;
4933;SDS011;2482;49.154;8.254;2024-03-07T10:40:38;26.30;;;15.37;;
4933;SDS011;2482;49.154;8.254;2024-03-07T10:43:16;23.93;;;16.17;;
4933;SDS011;2482;49.154;8.254;2024-03-07T10:45:48;23.57;;;15.30;;
4933;SDS011;2482;49.154;8.254;2024-03-07T10:48:19;24.10;;;15.20;;
4933;SDS011;2482;49.154;8.254;2024-03-07T11:00:02;25.30;;;16.00;;
4933;SDS011;2482;49.154;8.254;2024-03-07T11:02:54;24.10;;;16.30;;
4933;SDS011;2482;49.154;8.254;2024-03-07T11:05:26;28.07;;;15.97;;
4933;SDS011;2482;49.154;8.254;2024-03-07T11:08:01;29.83;;;17.00;;
4933;SDS011;2482;49.154;8.254;2024-03-07T11:10:39;25.90;;;16.77;;
4933;SDS011;2482;49.154;8.254;2024-03-07T11:13:08;27.37;;;15.00;;
4933;SDS011;2482;49.154;8.254;2024-03-07T11:15:43;25.13;;;16.23;;
4933;SDS011;2482;49.154;8.254;2024-03-07T11:18:26;23.63;;;16.40;;
4933;SDS011;2482;49.154;8.254;2024-03-07T11:20:57;26.10;;;16.17;;
4933;SDS011;2482;49.154;8.254;2024-03-07T11:23:33;25.30;;;16.00;;
4933;SDS011;2482;49.154;8.254;2024-03-07T11:26:12;28.93;;;16.20;;
4933;SDS011;2482;49.154;8.254;2024-03-07T11:28:44;27.40;;;17.20;;
4933;SDS011;2482;49.154;8.254;2024-03-07T11:31:27;30.67;;;16.90;;
4933;SDS011;2482;49.154;8.254;2024-03-07T11:34:14;23.00;;;15.37;;
4933;SDS011;2482;49.154;8.254;2024-03-07T11:36:48;24.10;;;15.80;;
4933;SDS011;2482;49.154;8.254;2024-03-07T11:39:40;22.60;;;15.40;;
4933;SDS011;2482;49.154;8.254;2024-03-07T11:42:31;27.07;;;16.00;;
4933;SDS011;2482;49.154;8.254;2024-03-07T11:45:03;27.03;;;16.30;;
4933;SDS011;2482;49.154;8.254;2024-03-07T11:47:37;24.70;;;17.03;;
4933;SDS011;2482;49.154;8.254;2024-03-07T11:50:06;28.70;;;16.80;;
4933;SDS011;2482;49.154;8.254;2024-03-07T11:52:49;25.23;;;16.30;;
4933;SDS011;2482;49.154;8.254;2024-03-07T11:55:17;28.20;;;17.33;;
4933;SDS011;2482;49.154;8.254;2024-03-07T11:57:48;26.40;;;16.77;;
4933;SDS011;2482;49.154;8.254;2024-03-07T12:00:22;26.40;;;17.37;;
4933;SDS011;2482;49.154;8.254;2024-03-07T12:03:00;24.60;;;16.10;;
4933;SDS011;2482;49.154;8.254;2024-03-07T12:05:31;29.23;;;16.70;;
4933;SDS011;2482;49.154;8.254;2024-03-07T12:08:06;27.63;;;16.47;;
4933;SDS011;2482;49.154;8.254;2024-03-07T12:10:37;26.20;;;17.13;;
4933;SDS011;2482;49.154;8.254;2024-03-07T12:13:15;25.33;;;15.90;;
4933;SDS011;2482;49.154;8.254;2024-03-07T12:15:48;24.50;;;15.47;;
4933;SDS011;2482;49.154;8.254;2024-03-07T12:18:18;27.97;;;16.80;;
4933;SDS011;2482;49.154;8.254;2024-03-07T12:21:01;28.00;;;17.60;;
4933;SDS011;2482;49.154;8.254;2024-03-07T12:23:40;27.67;;;17.10;;
4933;SDS011;2482;49.154;8.254;2024-03-07T12:26:13;26.50;;;17.17;;
4933;SDS011;2482;49.154;8.254;2024-03-07T12:28:49;32.70;;;18.37;;
4933;SDS011;2482;49.154;8.254;2024-03-07T12:31:19;29.90;;;18.20;;
4933;SDS011;2482;49.154;8.254;2024-03-07T12:33:53;29.50;;;19.10;;
4933;SDS011;2482;49.154;8.254;2024-03-07T12:36:21;25.60;;;18.53;;
4933;SDS011;2482;49.154;8.254;2024-03-07T12:38:53;21.83;;;16.30;;
4933;SDS011;2482;49.154;8.254;2024-03-07T12:41:23;28.67;;;18.40;;
4933;SDS011;2482;49.154;8.254;2024-03-07T12:43:58;28.90;;;18.07;;
4933;SDS011;2482;49.154;8.254;2024-03-07T12:46:42;21.60;;;15.77;;
4933;SDS011;2482;49.154;8.254;2024-03-07T12:49:14;26.83;;;17.33;;
4933;SDS011;2482;49.154;8.254;2024-03-07T12:51:42;27.37;;;18.50;;
4933;SDS011;2482;49.154;8.254;2024-03-07T12:54:10;29.47;;;17.20;;
4933;SDS011;2482;49.154;8.254;2024-03-07T12:56:38;27.97;;;17.53;;
4933;SDS011;2482;49.154;8.254;2024-03-07T12:59:20;26.97;;;17.40;;
4933;SDS011;2482;49.154;8.254;2024-03-07T13:01:56;23.30;;;15.30;;
4933;SDS011;2482;49.154;8.254;2024-03-07T13:04:24;22.60;;;16.40;;
4933;SDS011;2482;49.154;8.254;2024-03-07T13:06:53;27.53;;;17.20;;
4933;SDS011;2482;49.154;8.254;2024-03-07T13:09:22;27.20;;;16.80;;
4933;SDS011;2482;49.154;8.254;2024-03-07T13:12:00;22.40;;;16.23;;
4933;SDS011;2482;49.154;8.254;2024-03-07T13:14:39;24.43;;;16.40;;
4933;SDS011;2482;49.154;8.254;2024-03-07T13:17:18;23.20;;;16.30;;
4933;SDS011;2482;49.154;8.254;2024-03-07T13:19:49;24.70;;;15.77;;
4933;SDS011;2482;49.154;8.254;2024-03-07T13:22:29;22.30;;;16.07;;
4933;SDS011;2482;49.154;8.254;2024-03-07T13:25:13;22.87;;;15.43;;
4933;SDS011;2482;49.154;8.254;2024-03-07T13:27:56;22.40;;;16.50;;
4933;SDS011;2482;49.154;8.254;2024-03-07T13:30:40;25.30;;;15.87;;
4933;SDS011;2482;49.154;8.254;2024-03-07T13:33:13;28.73;;;15.90;;
4933;SDS011;2482;49.154;8.254;2024-03-07T13:35:44;24.50;;;16.27;;
4933;SDS011;2482;49.154;8.254;2024-03-07T13:38:16;23.07;;;16.20;;
4933;SDS011;2482;49.154;8.254;2024-03-07T13:40:52;22.80;;;16.20;;
4933;SDS011;2482;49.154;8.254;2024-03-07T13:43:19;24.40;;;15.57;;
4933;SDS011;2482;49.154;8.254;2024-03-07T13:45:50;22.57;;;14.80;;
4933;SDS011;2482;49.154;8.254;2024-03-07T13:48:20;23.93;;;15.10;;
4933;SDS011;2482;49.154;8.254;2024-03-07T13:50:49;24.90;;;15.23;;
4933;SDS011;2482;49.154;8.254;2024-03-07T13:53:28;21.80;;;15.27;;
4933;SDS011;2482;49.154;8.254;2024-03-07T14:02:14;20.27;;;14.27;;
4933;SDS011;2482;49.154;8.254;2024-03-07T14:06:02;22.83;;;15.17;;
4933;SDS011;2482;49.154;8.254;2024-03-07T14:33:26;22.77;;;15.10;;
4933;SDS011;2482;49.154;8.254;2024-03-07T14:38:47;22.80;;;16.17;;
4933;SDS011;2482;49.154;8.254;2024-03-07T14:44:18;27.50;;;16.13;;
4933;SDS011;2482;49.154;8.254;2024-03-07T14:47:03;24.40;;;15.67;;
4933;SDS011;2482;49.154;8.254;2024-03-07T14:49:47;24.10;;;16.83;;
4933;SDS011;2482;49.154;8.254;2024-03-07T14:52:17;24.53;;;15.97;;
4933;SDS011;2482;49.154;8.254;2024-03-07T14:54:57;27.33;;;15.97;;
4933;SDS011;2482;49.154;8.254;2024-03-07T14:57:25;23.07;;;15.77;;
4933;SDS011;2482;49.154;8.254;2024-03-07T14:59:56;27.27;;;16.40;;
4933;SDS011;2482;49.154;8.254;2024-03-07T15:02:29;26.03;;;15.83;;
4933;SDS011;2482;49.154;8.254;2024-03-07T15:04:57;25.43;;;17.30;;
4933;SDS011;2482;49.154;8.254;2024-03-07T15:07:25;27.33;;;16.60;;
4933;SDS011;2482;49.154;8.254;2024-03-07T15:09:55;25.10;;;16.47;;
4933;SDS011;2482;49.154;8.254;2024-03-07T15:12:27;21.53;;;15.80;;
4933;SDS011;2482;49.154;8.254;2024-03-07T15:14:55;24.83;;;16.73;;
4933;SDS011;2482;49.154;8.254;2024-03-07T15:17:38;24.03;;;15.73;;
4933;SDS011;2482;49.154;8.254;2024-03-07T15:20:06;28.67;;;18.07;;
4933;SDS011;2482;49.154;8.254;2024-03-07T15:22:52;23.20;;;15.93;;
4933;SDS011;2482;49.154;8.254;2024-03-07T15:25:27;24.17;;;15.90;;
4933;SDS011;2482;49.154;8.254;2024-03-07T15:27:56;27.07;;;16.60;;
4933;SDS011;2482;49.154;8.254;2024-03-07T15:30:27;24.80;;;16.80;;
4933;SDS011;2482;49.154;8.254;2024-03-07T15:33:02;22.97;;;16.10;;
4933;SDS011;2482;49.154;8.254;2024-03-07T15:35:36;25.50;;;14.93;;
4933;SDS011;2482;49.154;8.254;2024-03-07T15:38:09;24.10;;;15.67;;
4933;SDS011;2482;49.154;8.254;2024-03-07T15:40:45;24.97;;;16.60;;
4933;SDS011;2482;49.154;8.254;2024-03-07T15:43:16;37.57;;;21.90;;
4933;SDS011;2482;49.154;8.254;2024-03-07T15:45:47;30.70;;;21.17;;
4933;SDS011;2482;49.154;8.254;2024-03-07T15:48:24;23.90;;;16.37;;
4933;SDS011;2482;49.154;8.254;2024-03-07T15:50:52;25.10;;;15.73;;
4933;SDS011;2482;49.154;8.254;2024-03-07T15:53:30;24.60;;;16.70;;
4933;SDS011;2482;49.154;8.254;2024-03-07T15:56:05;25.60;;;16.10;;
4933;SDS011;2482;49.154;8.254;2024-03-07T15:58:36;25.10;;;15.77;;
4933;SDS011;2482;49.154;8.254;2024-03-07T16:01:12;24.30;;;15.13;;
4933;SDS011;2482;49.154;8.254;2024-03-07T16:03:49;25.73;;;16.37;;
4933;SDS011;2482;49.154;8.254;2024-03-07T16:06:20;24.90;;;15.50;;
4933;SDS011;2482;49.154;8.254;2024-03-07T16:08:50;22.77;;;16.03;;
4933;SDS011;2482;49.154;8.254;2024-03-07T16:11:23;22.17;;;15.73;;
4933;SDS011;2482;49.154;8.254;2024-03-07T16:14:02;26.27;;;15.57;;
4933;SDS011;2482;49.154;8.254;2024-03-07T16:16:29;33.13;;;15.67;;
4933;SDS011;2482;49.154;8.254;2024-03-07T16:19:07;25.27;;;15.60;;
4933;SDS011;2482;49.154;8.254;2024-03-07T16:21:37;21.40;;;14.47;;
4933;SDS011;2482;49.154;8.254;2024-03-07T16:24:07;22.63;;;14.67;;
4933;SDS011;2482;49.154;8.254;2024-03-07T16:26:44;22.73;;;15.50;;
4933;SDS011;2482;49.154;8.254;2024-03-07T16:29:12;19.57;;;14.50;;
4933;SDS011;2482;49.154;8.254;2024-03-07T16:31:41;22.90;;;15.47;;
4933;SDS011;2482;49.154;8.254;2024-03-07T16:34:12;20.90;;;14.70;;
4933;SDS011;2482;49.154;8.254;2024-03-07T16:36:40;26.50;;;16.07;;
4933;SDS011;2482;49.154;8.254;2024-03-07T16:39:09;28.37;;;17.23;;
4933;SDS011;2482;49.154;8.254;2024-03-07T16:41:44;36.63;;;19.87;;
4933;SDS011;2482;49.154;8.254;2024-03-07T16:44:15;26.10;;;17.47;;
4933;SDS011;2482;49.154;8.254;2024-03-07T16:46:51;27.93;;;17.00;;
4933;SDS011;2482;49.154;8.254;2024-03-07T16:49:26;31.73;;;17.47;;
4933;SDS011;2482;49.154;8.254;2024-03-07T16:51:57;27.00;;;16.70;;
4933;SDS011;2482;49.154;8.254;2024-03-07T16:54:35;24.50;;;16.57;;
4933;SDS011;2482;49.154;8.254;2024-03-07T16:57:07;23.60;;;16.40;;
4933;SDS011;2482;49.154;8.254;2024-03-07T16:59:39;32.17;;;17.47;;
4933;SDS011;2482;49.154;8.254;2024-03-07T17:04:48;24.03;;;16.33;;
4933;SDS011;2482;49.154;8.254;2024-03-07T17:07:20;25.13;;;15.60;;
4933;SDS011;2482;49.154;8.254;2024-03-07T17:09:50;24.90;;;15.87;;
4933;SDS011;2482;49.154;8.254;2024-03-07T17:12:21;22.37;;;15.73;;
4933;SDS011;2482;49.154;8.254;2024-03-07T17:14:52;22.60;;;16.27;;
4933;SDS011;2482;49.154;8.254;2024-03-07T17:17:24;23.20;;;15.90;;